Time,TemperatureF,DewpointF,PressureIn,WindDirection,WindDirectionDegrees,WindSpeedMPH,WindSpeedGustMPH,Humidity,HourlyPrecipIn,Conditions,Clouds,dailyrainin,SoftwareType,DateUTC
2013-03-03 00:01:00,24.8,22.0,29.21,SSW,203,0.0,0.0,88,-99.99,,,-99.99,WSDL version 423,2013-03-03 05:01:00,
2013-03-03 00:06:00,24.8,22.0,29.21,WNW,293,0.0,0.9,88,-99.99,,,-99.99,WSDL version 423,2013-03-03 05:06:00,
2013-03-03 00:11:00,24.8,22.3,29.18,WNW,293,0.0,0.9,89,-99.99,,,-99.99,WSDL version 423,2013-03-03 05:11:00,
2013-03-03 00:16:00,24.7,22.2,29.18,NNE,23,0.2,1.6,89,-99.99,,,-99.99,WSDL version 423,2013-03-03 05:16:00,
2013-03-03 00:21:00,24.6,22.1,29.18,NNE,23,0.0,1.6,89,-99.99,,,-99.99,WSDL version 423,2013-03-03 05:21:00,
2013-03-03 00:26:00,24.6,22.1,29.21,NNE,23,0.0,0.0,89,-99.99,,,-99.99,WSDL version 423,2013-03-03 05:26:00,
2013-03-03 00:31:00,24.6,22.1,29.21,NNE,23,0.0,0.0,89,-99.99,,,-99.99,WSDL version 423,2013-03-03 05:31:00,
2013-03-03 00:36:00,24.6,22.1,29.21,NNE,23,0.0,0.0,89,-99.99,,,-99.99,WSDL version 423,2013-03-03 05:36:00,
2013-03-03 00:41:00,24.6,22.1,29.18,NNE,23,0.0,0.0,89,-99.99,,,-99.99,WSDL version 423,2013-03-03 05:41:00,
2013-03-03 00:46:00,24.6,22.2,29.18,NNE,23,0.0,0.0,90,-99.99,,,-99.99,WSDL version 423,2013-03-03 05:46:00,
2013-03-03 00:51:00,24.6,22.4,29.18,NNE,23,0.0,0.0,90,-99.99,,,-99.99,WSDL version 423,2013-03-03 05:51:00,
2013-03-03 00:56:00,24.6,22.4,29.18,NNE,23,0.0,0.0,90,-99.99,,,-99.99,WSDL version 423,2013-03-03 05:56:00,
2013-03-03 01:01:00,24.6,22.4,29.18,NNE,23,0.0,0.0,90,-99.99,,,-99.99,WSDL version 423,2013-03-03 06:01:00,
2013-03-03 01:06:00,24.4,22.2,29.18,NNE,23,0.0,0.0,90,-99.99,,,-99.99,WSDL version 423,2013-03-03 06:06:00,
2013-03-03 01:11:00,24.4,22.2,29.18,NNE,23,0.0,0.0,90,-99.99,,,-99.99,WSDL version 423,2013-03-03 06:11:00,
2013-03-03 01:16:00,24.4,22.2,29.18,NNE,23,0.0,0.0,90,-99.99,,,-99.99,WSDL version 423,2013-03-03 06:16:00,
2013-03-03 01:26:00,24.4,22.2,29.18,NNE,23,0.0,0.0,90,-99.99,,,-99.99,WSDL version 423,2013-03-03 06:26:00,
2013-03-03 01:31:00,24.4,22.2,29.18,NNE,23,0.0,0.0,90,-99.99,,,-99.99,WSDL version 423,2013-03-03 06:31:00,
2013-03-03 01:36:00,24.4,22.2,29.18,NNE,23,0.0,0.0,90,-99.99,,,-99.99,WSDL version 423,2013-03-03 06:36:00,
2013-03-03 01:41:00,24.4,22.2,29.18,NNE,23,0.0,0.0,90,-99.99,,,-99.99,WSDL version 423,2013-03-03 06:41:00,
2013-03-03 01:46:00,24.4,22.2,29.18,NNE,23,0.0,0.0,90,-99.99,,,-99.99,WSDL version 423,2013-03-03 06:46:00,
2013-03-03 01:51:00,24.4,22.2,29.18,NNE,23,0.0,0.0,90,-99.99,,,-99.99,WSDL version 423,2013-03-03 06:51:00,
2013-03-03 01:56:00,24.4,22.2,29.18,NNE,23,0.0,0.0,90,-99.99,,,-99.99,WSDL version 423,2013-03-03 06:56:00,
2013-03-03 02:01:00,24.4,22.3,29.18,NNE,23,0.0,0.0,91,-99.99,,,-99.99,WSDL version 423,2013-03-03 07:01:00,
2013-03-03 02:06:00,24.4,22.5,29.18,NNE,23,0.0,0.0,91,-99.99,,,-99.99,WSDL version 423,2013-03-03 07:06:00,
2013-03-03 02:11:00,24.4,22.5,29.18,NNE,23,0.0,0.0,91,-99.99,,,-99.99,WSDL version 423,2013-03-03 07:11:00,
2013-03-03 02:16:00,24.4,22.5,29.18,NNE,23,0.0,0.0,91,-99.99,,,-99.99,WSDL version 423,2013-03-03 07:16:00,
2013-03-03 02:21:00,24.4,22.5,29.18,NNE,23,0.0,0.0,91,-99.99,,,-99.99,WSDL version 423,2013-03-03 07:21:00,
2013-03-03 02:26:00,24.4,22.5,29.18,NNE,23,0.0,0.9,91,-99.99,,,-99.99,WSDL version 423,2013-03-03 07:26:00,
2013-03-03 02:31:00,24.4,22.5,29.18,NNE,23,0.0,0.9,91,-99.99,,,-99.99,WSDL version 423,2013-03-03 07:31:00,
2013-03-03 02:36:00,24.4,22.5,29.18,NNE,23,0.0,0.0,91,-99.99,,,-99.99,WSDL version 423,2013-03-03 07:36:00,
2013-03-03 02:41:00,24.4,22.5,29.18,NNE,23,0.0,0.0,91,-99.99,,,-99.99,WSDL version 423,2013-03-03 07:41:00,
2013-03-03 02:46:00,24.4,22.5,29.18,NNE,23,0.0,1.1,91,-99.99,,,-99.99,WSDL version 423,2013-03-03 07:46:00,
2013-03-03 02:51:00,24.4,22.5,29.18,NNE,23,0.0,1.1,91,-99.99,,,-99.99,WSDL version 423,2013-03-03 07:51:00,
2013-03-03 02:56:00,24.4,22.5,29.18,NNE,23,0.0,0.0,91,-99.99,,,-99.99,WSDL version 423,2013-03-03 07:56:00,
2013-03-03 03:01:00,24.4,22.5,29.18,NNE,23,0.0,0.9,91,-99.99,,,-99.99,WSDL version 423,2013-03-03 08:01:00,
2013-03-03 03:06:00,24.4,22.4,29.18,NNE,23,0.0,0.9,91,-99.99,,,-99.99,WSDL version 423,2013-03-03 08:06:00,
2013-03-03 03:11:00,24.3,22.3,29.18,NNE,23,0.0,0.9,91,-99.99,,,-99.99,WSDL version 423,2013-03-03 08:11:00,
2013-03-03 03:16:00,24.3,22.3,29.18,NNE,23,0.0,0.0,91,-99.99,,,-99.99,WSDL version 423,2013-03-03 08:16:00,
2013-03-03 03:21:00,24.3,22.3,29.18,NNE,23,0.0,0.0,91,-99.99,,,-99.99,WSDL version 423,2013-03-03 08:21:00,
2013-03-03 03:26:00,24.3,22.3,29.15,NNE,23,0.0,1.1,91,-99.99,,,-99.99,WSDL version 423,2013-03-03 08:26:00,
2013-03-03 03:31:00,24.2,22.2,29.15,NNE,23,0.0,1.1,91,-99.99,,,-99.99,WSDL version 423,2013-03-03 08:31:00,
2013-03-03 03:36:00,24.1,22.1,29.15,NNE,23,0.0,0.0,91,-99.99,,,-99.99,WSDL version 423,2013-03-03 08:36:00,
2013-03-03 03:41:00,24.1,22.1,29.15,NNE,23,0.0,0.0,91,-99.99,,,-99.99,WSDL version 423,2013-03-03 08:41:00,
2013-03-03 03:46:00,24.1,22.1,29.15,NNE,23,0.0,0.0,91,-99.99,,,-99.99,WSDL version 423,2013-03-03 08:46:00,
2013-03-03 03:51:00,24.0,22.0,29.15,NNE,23,0.0,0.0,91,-99.99,,,-99.99,WSDL version 423,2013-03-03 08:51:00,
2013-03-03 03:56:00,23.9,21.9,29.15,NNE,23,0.0,0.0,91,-99.99,,,-99.99,WSDL version 423,2013-03-03 08:56:00,
2013-03-03 04:01:00,23.9,21.9,29.15,NNE,23,0.0,0.0,91,-99.99,,,-99.99,WSDL version 423,2013-03-03 09:01:00,
2013-03-03 04:06:00,23.9,21.9,29.15,NNE,23,0.0,0.0,91,-99.99,,,-99.99,WSDL version 423,2013-03-03 09:06:00,
2013-03-03 04:16:00,23.7,21.8,29.18,NNE,23,0.0,0.0,91,-99.99,,,-99.99,WSDL version 423,2013-03-03 09:16:00,
2013-03-03 04:21:00,23.7,21.8,29.18,NNE,23,0.0,0.0,91,-99.99,,,-99.99,WSDL version 423,2013-03-03 09:21:00,
2013-03-03 04:26:00,23.7,21.8,29.15,NNE,23,0.0,0.0,91,-99.99,,,-99.99,WSDL version 423,2013-03-03 09:26:00,
2013-03-03 04:31:00,23.7,21.8,29.15,NNE,23,0.0,0.0,91,-99.99,,,-99.99,WSDL version 423,2013-03-03 09:31:00,
2013-03-03 04:36:00,23.7,21.8,29.15,NNE,23,0.3,2.2,91,-99.99,,,-99.99,WSDL version 423,2013-03-03 09:36:00,
2013-03-03 04:46:00,23.7,21.9,29.15,NNE,23,0.0,1.6,92,-99.99,,,-99.99,WSDL version 423,2013-03-03 09:46:00,
2013-03-03 04:51:00,23.7,21.8,29.15,NNE,23,0.0,1.6,91,-99.99,,,-99.99,WSDL version 423,2013-03-03 09:51:00,
2013-03-03 04:56:00,23.8,21.9,29.15,NNE,23,0.0,1.3,91,-99.99,,,-99.99,WSDL version 423,2013-03-03 09:56:00,
2013-03-03 05:01:00,23.9,21.9,29.15,NNE,23,0.0,1.3,91,-99.99,,,-99.99,WSDL version 423,2013-03-03 10:01:00,
2013-03-03 05:06:00,23.9,21.9,29.15,NNE,23,0.0,0.0,91,-99.99,,,-99.99,WSDL version 423,2013-03-03 10:06:00,
2013-03-03 05:11:00,23.9,21.9,29.18,NNE,23,0.0,0.0,91,-99.99,,,-99.99,WSDL version 423,2013-03-03 10:11:00,
2013-03-03 05:16:00,23.9,21.9,29.18,NNE,23,0.0,0.0,91,-99.99,,,-99.99,WSDL version 423,2013-03-03 10:16:00,
2013-03-03 05:21:00,23.9,21.9,29.18,NNE,23,0.0,0.0,91,-99.99,,,-99.99,WSDL version 423,2013-03-03 10:21:00,
2013-03-03 05:26:00,23.7,21.8,29.18,NNE,23,0.0,1.3,91,-99.99,,,-99.99,WSDL version 423,2013-03-03 10:26:00,
2013-03-03 05:36:00,23.7,21.8,29.18,NNE,23,0.0,0.0,91,-99.99,,,-99.99,WSDL version 423,2013-03-03 10:36:00,
2013-03-03 05:41:00,23.6,21.6,29.15,NNE,23,0.0,0.0,91,-99.99,,,-99.99,WSDL version 423,2013-03-03 10:41:00,
2013-03-03 05:46:00,23.5,21.6,29.15,NNE,23,0.0,0.0,91,-99.99,,,-99.99,WSDL version 423,2013-03-03 10:46:00,
2013-03-03 05:51:00,23.4,21.2,29.15,NNE,23,0.0,0.0,90,-99.99,,,-99.99,WSDL version 423,2013-03-03 10:51:00,
2013-03-03 05:56:00,23.2,21.0,29.15,NNE,23,0.0,0.0,90,-99.99,,,-99.99,WSDL version 423,2013-03-03 10:56:00,
2013-03-03 06:01:00,23.0,21.0,29.15,NNE,23,0.0,0.0,91,-99.99,,,-99.99,WSDL version 423,2013-03-03 11:01:00,
2013-03-03 06:06:00,22.7,20.6,29.15,NNE,23,0.0,0.0,90,-99.99,,,-99.99,WSDL version 423,2013-03-03 11:06:00,
2013-03-03 06:16:00,22.5,20.3,29.15,NNE,23,0.0,0.0,90,-99.99,,,-99.99,WSDL version 423,2013-03-03 11:16:00,
2013-03-03 06:21:00,22.5,20.3,29.15,NNE,23,0.0,0.0,90,-99.99,,,-99.99,WSDL version 423,2013-03-03 11:21:00,
2013-03-03 06:26:00,22.5,20.5,29.18,NNE,23,0.0,0.0,91,-99.99,,,-99.99,WSDL version 423,2013-03-03 11:26:00,
2013-03-03 06:36:00,22.6,20.7,29.18,NNE,23,0.0,0.0,91,-99.99,,,-99.99,WSDL version 423,2013-03-03 11:36:00,
2013-03-03 06:41:00,22.8,20.9,29.15,NNE,23,0.0,0.0,91,-99.99,,,-99.99,WSDL version 423,2013-03-03 11:41:00,
2013-03-03 06:46:00,22.8,20.9,29.15,NNE,23,0.0,0.0,91,-99.99,,,-99.99,WSDL version 423,2013-03-03 11:46:00,
2013-03-03 06:56:00,23.2,21.3,29.15,NNE,23,0.0,0.0,91,-99.99,,,-99.99,WSDL version 423,2013-03-03 11:56:00,
2013-03-03 07:01:00,23.5,21.7,29.15,NNE,23,0.0,0.0,92,-99.99,,,-99.99,WSDL version 423,2013-03-03 12:01:00,
2013-03-03 07:06:00,23.6,21.9,29.15,NNE,23,0.0,0.0,92,-99.99,,,-99.99,WSDL version 423,2013-03-03 12:06:00,
2013-03-03 07:11:00,23.9,22.1,29.15,NNE,23,0.0,0.0,91,-99.99,,,-99.99,WSDL version 423,2013-03-03 12:11:00,
2013-03-03 07:16:00,24.3,22.3,29.15,NNE,23,0.0,0.0,92,-99.99,,,-99.99,WSDL version 423,2013-03-03 12:16:00,
2013-03-03 07:21:00,24.6,22.9,29.15,NNE,23,0.0,0.0,92,-99.99,,,-99.99,WSDL version 423,2013-03-03 12:21:00,
2013-03-03 07:26:00,25.1,23.1,29.15,NNE,23,0.0,0.0,91,-99.99,,,-99.99,WSDL version 423,2013-03-03 12:26:00,
2013-03-03 07:31:00,25.5,23.5,29.15,NNE,23,0.0,0.0,91,-99.99,,,-99.99,WSDL version 423,2013-03-03 12:31:00,
2013-03-03 07:36:00,26.0,24.0,29.15,NNE,23,0.0,0.0,91,-99.99,,,-99.99,WSDL version 423,2013-03-03 12:36:00,
2013-03-03 07:41:00,26.1,23.8,29.18,NNE,23,0.3,3.1,89,-99.99,,,-99.99,WSDL version 423,2013-03-03 12:41:00,
2013-03-03 07:46:00,26.4,23.5,29.18,NNE,23,0.9,3.1,87,-99.99,,,-99.99,WSDL version 423,2013-03-03 12:46:00,
2013-03-03 07:51:00,26.5,22.9,29.18,NNE,23,2.5,3.6,83,-99.99,,,-99.99,WSDL version 423,2013-03-03 12:51:00,
2013-03-03 07:56:00,26.5,22.0,29.15,NNE,23,1.7,3.6,80,-99.99,,,-99.99,WSDL version 423,2013-03-03 12:56:00,
2013-03-03 08:01:00,26.4,21.7,29.15,NNE,23,1.6,3.4,80,-99.99,,,-99.99,WSDL version 423,2013-03-03 13:01:00,
2013-03-03 08:06:00,26.6,21.8,29.15,NNE,23,1.5,3.4,79,-99.99,,,-99.99,WSDL version 423,2013-03-03 13:06:00,
2013-03-03 08:11:00,27.0,22.0,29.15,NNE,23,1.2,3.4,79,-99.99,,,-99.99,WSDL version 423,2013-03-03 13:11:00,
2013-03-03 08:16:00,27.2,22.1,29.15,NNE,23,2.2,3.4,78,-99.99,,,-99.99,WSDL version 423,2013-03-03 13:16:00,
2013-03-03 08:21:00,27.6,22.1,29.15,NNE,23,2.4,3.4,77,-99.99,,,-99.99,WSDL version 423,2013-03-03 13:21:00,
2013-03-03 08:26:00,28.0,22.5,29.15,NNE,23,2.0,3.4,77,-99.99,,,-99.99,WSDL version 423,2013-03-03 13:26:00,
2013-03-03 08:31:00,28.6,23.0,29.15,NNE,23,1.9,3.1,77,-99.99,,,-99.99,WSDL version 423,2013-03-03 13:31:00,
2013-03-03 08:36:00,29.5,23.7,29.15,NNE,23,1.9,3.1,75,-99.99,,,-99.99,WSDL version 423,2013-03-03 13:36:00,
2013-03-03 08:41:00,30.5,24.4,29.15,NNE,23,0.0,2.9,76,-99.99,,,-99.99,WSDL version 423,2013-03-03 13:41:00,
2013-03-03 08:46:00,31.2,25.2,29.15,NE,35,0.5,2.2,75,-99.99,,,-99.99,WSDL version 423,2013-03-03 13:46:00,
2013-03-03 08:51:00,31.7,25.3,29.15,NW,326,0.1,2.2,74,-99.99,,,-99.99,WSDL version 423,2013-03-03 13:51:00,
2013-03-03 08:56:00,32.6,25.0,29.15,WSW,243,0.0,2.2,74,-99.99,,,-99.99,WSDL version 423,2013-03-03 13:56:00,
2013-03-03 09:01:00,33.7,26.0,29.15,NNE,25,0.0,1.3,72,-99.99,,,-99.99,WSDL version 423,2013-03-03 14:01:00,
2013-03-03 09:06:00,34.1,25.8,29.15,North,360,1.4,3.4,69,-99.99,,,-99.99,WSDL version 423,2013-03-03 14:06:00,
2013-03-03 09:11:00,33.3,22.6,29.15,North,350,1.3,3.6,63,-99.99,,,-99.99,WSDL version 423,2013-03-03 14:11:00,
2013-03-03 09:16:00,33.1,22.5,29.15,North,352,0.9,3.6,65,-99.99,,,-99.99,WSDL version 423,2013-03-03 14:16:00,
2013-03-03 09:21:00,33.2,22.7,29.15,NNW,345,1.2,2.9,65,-99.99,,,-99.99,WSDL version 423,2013-03-03 14:21:00,
2013-03-03 09:26:00,33.6,23.6,29.15,WNW,295,0.3,2.5,67,-99.99,,,-99.99,WSDL version 423,2013-03-03 14:26:00,
2013-03-03 09:31:00,34.7,25.1,29.15,SSE,168,0.0,1.6,67,-99.99,,,-99.99,WSDL version 423,2013-03-03 14:31:00,
2013-03-03 09:36:00,36.2,26.4,29.15,SSE,160,0.1,2.7,67,-99.99,,,-99.99,WSDL version 423,2013-03-03 14:36:00,
2013-03-03 09:41:00,37.6,27.3,29.15,NE,42,0.6,2.7,64,-99.99,,,-99.99,WSDL version 423,2013-03-03 14:41:00,
2013-03-03 09:46:00,37.9,25.3,29.15,WSW,240,0.0,3.1,60,-99.99,,,-99.99,WSDL version 423,2013-03-03 14:46:00,
2013-03-03 09:51:00,38.7,26.6,29.15,NW,315,0.0,3.1,62,-99.99,,,-99.99,WSDL version 423,2013-03-03 14:51:00,
2013-03-03 09:56:00,39.5,26.3,29.15,SSW,205,0.0,1.1,57,-99.99,,,-99.99,WSDL version 423,2013-03-03 14:56:00,
2013-03-03 10:01:00,39.1,25.3,29.15,NE,37,0.0,0.9,58,-99.99,,,-99.99,WSDL version 423,2013-03-03 15:01:00,
2013-03-03 10:06:00,38.4,24.4,29.15,NW,310,0.0,0.9,56,-99.99,,,-99.99,WSDL version 423,2013-03-03 15:06:00,
2013-03-03 10:11:00,37.3,23.2,29.15,NNW,340,0.0,1.6,57,-99.99,,,-99.99,WSDL version 423,2013-03-03 15:11:00,
2013-03-03 10:16:00,37.3,23.8,29.15,SE,135,0.0,1.6,58,-99.99,,,-99.99,WSDL version 423,2013-03-03 15:16:00,
2013-03-03 10:21:00,37.9,24.8,29.15,SSW,208,0.0,1.1,59,-99.99,,,-99.99,WSDL version 423,2013-03-03 15:21:00,
2013-03-03 10:26:00,38.6,24.8,29.15,NNW,343,0.9,4.3,57,-99.99,,,-99.99,WSDL version 423,2013-03-03 15:26:00,
2013-03-03 10:31:00,39.6,24.9,29.15,NNW,338,1.3,4.3,54,-99.99,,,-99.99,WSDL version 423,2013-03-03 15:31:00,
2013-03-03 10:36:00,40.9,26.6,29.15,WSW,239,0.0,2.9,56,-99.99,,,-99.99,WSDL version 423,2013-03-03 15:36:00,
2013-03-03 10:41:00,40.7,26.0,29.15,NNW,340,0.0,0.0,54,-99.99,,,-99.99,WSDL version 423,2013-03-03 15:41:00,
2013-03-03 10:46:00,40.2,24.9,29.15,WNW,293,0.0,0.0,54,-99.99,,,-99.99,WSDL version 423,2013-03-03 15:46:00,
2013-03-03 10:51:00,40.3,25.2,29.15,West,270,0.0,0.0,54,-99.99,,,-99.99,WSDL version 423,2013-03-03 15:51:00,
2013-03-03 10:56:00,40.5,25.3,29.15,West,270,0.0,0.0,55,-99.99,,,-99.99,WSDL version 423,2013-03-03 15:56:00,
2013-03-03 11:01:00,40.7,25.7,29.15,SW,217,0.0,0.0,54,-99.99,,,-99.99,WSDL version 423,2013-03-03 16:01:00,
2013-03-03 11:06:00,42.1,26.9,29.15,SSE,163,0.0,0.0,55,-99.99,,,-99.99,WSDL version 423,2013-03-03 16:06:00,
2013-03-03 11:11:00,43.7,28.0,29.15,SSW,194,0.0,0.0,53,-99.99,,,-99.99,WSDL version 423,2013-03-03 16:11:00,
2013-03-03 11:16:00,44.2,27.1,29.15,SSW,194,0.0,0.0,51,-99.99,,,-99.99,WSDL version 423,2013-03-03 16:16:00,
2013-03-03 11:21:00,45.0,27.7,29.15,SE,135,0.0,0.0,50,-99.99,,,-99.99,WSDL version 423,2013-03-03 16:21:00,
2013-03-03 11:26:00,44.8,27.1,29.15,WSW,241,0.0,0.0,49,-99.99,,,-99.99,WSDL version 423,2013-03-03 16:26:00,
2013-03-03 11:31:00,44.0,26.2,29.15,WSW,250,0.0,2.2,49,-99.99,,,-99.99,WSDL version 423,2013-03-03 16:31:00,
2013-03-03 11:36:00,44.0,26.4,29.15,South,174,0.0,2.2,50,-99.99,,,-99.99,WSDL version 423,2013-03-03 16:36:00,
2013-03-03 11:41:00,44.4,26.8,29.15,WSW,240,0.0,0.0,49,-99.99,,,-99.99,WSDL version 423,2013-03-03 16:41:00,
2013-03-03 11:46:00,45.2,27.4,29.15,South,180,0.0,0.0,50,-99.99,,,-99.99,WSDL version 423,2013-03-03 16:46:00,
2013-03-03 11:51:00,45.9,27.7,29.15,SSW,203,0.0,0.0,48,-99.99,,,-99.99,WSDL version 423,2013-03-03 16:51:00,
2013-03-03 11:56:00,46.0,27.2,29.15,West,260,0.0,0.0,47,-99.99,,,-99.99,WSDL version 423,2013-03-03 16:56:00,
2013-03-03 12:01:00,45.7,27.3,29.15,NW,315,0.0,0.0,49,-99.99,,,-99.99,WSDL version 423,2013-03-03 17:01:00,
2013-03-03 12:06:00,45.7,26.8,29.15,NNW,328,0.6,2.9,46,-99.99,,,-99.99,WSDL version 423,2013-03-03 17:06:00,
2013-03-03 12:11:00,44.8,25.8,29.12,SSW,200,0.0,2.9,48,-99.99,,,-99.99,WSDL version 423,2013-03-03 17:11:00,
2013-03-03 12:16:00,44.6,26.2,29.12,NW,320,0.3,3.8,49,-99.99,,,-99.99,WSDL version 423,2013-03-03 17:16:00,
2013-03-03 12:21:00,43.2,23.8,29.12,SE,146,0.3,5.6,48,-99.99,,,-99.99,WSDL version 423,2013-03-03 17:21:00,
2013-03-03 12:26:00,43.5,25.5,29.12,SSW,208,0.0,5.6,50,-99.99,,,-99.99,WSDL version 423,2013-03-03 17:26:00,
2013-03-03 12:31:00,44.6,27.2,29.12,SE,145,0.0,0.0,50,-99.99,,,-99.99,WSDL version 423,2013-03-03 17:31:00,
2013-03-03 12:36:00,45.0,27.4,29.12,WSW,239,0.0,0.0,50,-99.99,,,-99.99,WSDL version 423,2013-03-03 17:36:00,
2013-03-03 12:41:00,45.7,27.9,29.12,SSE,160,0.0,0.0,49,-99.99,,,-99.99,WSDL version 423,2013-03-03 17:41:00,
2013-03-03 12:46:00,46.3,28.0,29.12,North,6,0.0,0.0,48,-99.99,,,-99.99,WSDL version 423,2013-03-03 17:46:00,
2013-03-03 12:51:00,46.3,27.6,29.12,SE,140,0.0,1.3,47,-99.99,,,-99.99,WSDL version 423,2013-03-03 17:51:00,
2013-03-03 12:56:00,46.8,27.7,29.12,ESE,123,0.0,1.3,48,-99.99,,,-99.99,WSDL version 423,2013-03-03 17:56:00,
2013-03-03 13:01:00,46.6,27.2,29.12,SSE,165,0.0,0.0,46,-99.99,,,-99.99,WSDL version 423,2013-03-03 18:01:00,
2013-03-03 13:06:00,46.5,27.1,29.12,West,270,0.0,0.0,46,-99.99,,,-99.99,WSDL version 423,2013-03-03 18:06:00,
2013-03-03 13:11:00,46.6,27.5,29.12,SSW,203,0.0,0.0,47,-99.99,,,-99.99,WSDL version 423,2013-03-03 18:11:00,
2013-03-03 13:16:00,46.5,27.0,29.12,SSW,213,0.0,0.0,46,-99.99,,,-99.99,WSDL version 423,2013-03-03 18:16:00,
2013-03-03 13:21:00,46.1,26.6,29.12,SSW,203,0.0,2.0,46,-99.99,,,-99.99,WSDL version 423,2013-03-03 18:21:00,
2013-03-03 13:26:00,45.6,26.1,29.12,SW,219,0.0,2.0,45,-99.99,,,-99.99,WSDL version 423,2013-03-03 18:26:00,
2013-03-03 13:31:00,45.1,25.9,29.12,SSW,197,0.0,0.0,47,-99.99,,,-99.99,WSDL version 423,2013-03-03 18:31:00,
2013-03-03 13:36:00,45.6,26.9,29.12,SSW,211,0.0,0.0,48,-99.99,,,-99.99,WSDL version 423,2013-03-03 18:36:00,
2013-03-03 13:41:00,46.6,27.3,29.12,SW,223,0.0,0.0,47,-99.99,,,-99.99,WSDL version 423,2013-03-03 18:41:00,
2013-03-03 13:46:00,47.8,28.7,29.12,WSW,250,0.0,1.1,47,-99.99,,,-99.99,WSDL version 423,2013-03-03 18:46:00,
2013-03-03 13:51:00,48.1,28.3,29.12,WSW,239,0.0,1.1,44,-99.99,,,-99.99,WSDL version 423,2013-03-03 18:51:00,
2013-03-03 13:56:00,47.3,26.6,29.12,SW,219,0.0,1.3,44,-99.99,,,-99.99,WSDL version 423,2013-03-03 18:56:00,
2013-03-03 14:01:00,47.2,26.6,29.12,SSE,163,0.2,1.3,44,-99.99,,,-99.99,WSDL version 423,2013-03-03 19:01:00,
2013-03-03 14:06:00,46.6,26.0,29.12,SSW,193,0.0,1.6,46,-99.99,,,-99.99,WSDL version 423,2013-03-03 19:06:00,
2013-03-03 14:11:00,45.6,25.1,29.12,NW,323,0.3,2.7,44,-99.99,,,-99.99,WSDL version 423,2013-03-03 19:11:00,
2013-03-03 14:16:00,44.7,25.1,29.12,South,188,0.0,2.7,47,-99.99,,,-99.99,WSDL version 423,2013-03-03 19:16:00,
2013-03-03 14:21:00,44.6,25.2,29.12,North,357,1.3,3.8,44,-99.99,,,-99.99,WSDL version 423,2013-03-03 19:21:00,
2013-03-03 14:26:00,42.8,22.7,29.12,North,355,3.0,5.6,46,-99.99,,,-99.99,WSDL version 423,2013-03-03 19:26:00,
2013-03-03 14:31:00,40.9,22.6,29.12,North,352,1.2,5.6,49,-99.99,,,-99.99,WSDL version 423,2013-03-03 19:31:00,
2013-03-03 14:36:00,40.1,23.3,29.12,NW,325,0.6,4.9,51,-99.99,,,-99.99,WSDL version 423,2013-03-03 19:36:00,
2013-03-03 14:41:00,39.6,23.4,29.12,NNW,331,1.3,3.4,53,-99.99,,,-99.99,WSDL version 423,2013-03-03 19:41:00,
2013-03-03 14:51:00,39.0,24.2,29.12,North,3,1.5,3.8,56,-99.99,,,-99.99,WSDL version 423,2013-03-03 19:51:00,
2013-03-03 14:56:00,38.6,24.6,29.12,NNW,335,1.2,3.8,57,-99.99,,,-99.99,WSDL version 423,2013-03-03 19:56:00,
2013-03-03 15:01:00,38.2,24.8,29.12,North,350,0.0,5.6,58,-99.99,,,-99.99,WSDL version 423,2013-03-03 20:01:00,
2013-03-03 15:11:00,37.9,25.3,29.12,NNW,348,1.2,3.4,60,-99.99,,,-99.99,WSDL version 423,2013-03-03 20:11:00,
2013-03-03 15:16:00,37.3,25.2,29.12,North,8,1.6,3.4,62,-99.99,,,-99.99,WSDL version 423,2013-03-03 20:16:00,
2013-03-03 15:21:00,36.6,25.2,29.12,WNW,284,0.0,3.4,63,-99.99,,,-99.99,WSDL version 423,2013-03-03 20:21:00,
2013-03-03 15:31:00,36.1,25.3,29.12,North,357,0.7,3.1,65,-99.99,,,-99.99,WSDL version 423,2013-03-03 20:31:00,
2013-03-03 15:36:00,35.8,25.2,29.12,West,281,0.0,3.4,65,-99.99,,,-99.99,WSDL version 423,2013-03-03 20:36:00,
2013-03-03 15:46:00,36.4,26.7,29.12,SW,228,0.0,0.0,69,-99.99,,,-99.99,WSDL version 423,2013-03-03 20:46:00,
2013-03-03 15:51:00,37.2,28.1,29.12,South,188,0.0,0.0,69,-99.99,,,-99.99,WSDL version 423,2013-03-03 20:51:00,
2013-03-03 15:56:00,37.9,28.8,29.12,West,270,0.0,0.0,69,-99.99,,,-99.99,WSDL version 423,2013-03-03 20:56:00,
2013-03-03 16:01:00,38.5,29.3,29.12,South,177,0.0,0.0,69,-99.99,,,-99.99,WSDL version 423,2013-03-03 21:01:00,
2013-03-03 16:06:00,38.6,28.9,29.12,North,360,0.0,0.0,68,-99.99,,,-99.99,WSDL version 423,2013-03-03 21:06:00,
2013-03-03 16:11:00,38.6,28.7,29.12,NNW,335,0.0,0.0,67,-99.99,,,-99.99,WSDL version 423,2013-03-03 21:11:00,
2013-03-03 16:16:00,38.2,28.0,29.12,SW,225,0.0,0.0,66,-99.99,,,-99.99,WSDL version 423,2013-03-03 21:16:00,
2013-03-03 16:21:00,37.4,27.1,29.12,South,173,0.0,1.1,66,-99.99,,,-99.99,WSDL version 423,2013-03-03 21:21:00,
2013-03-03 16:26:00,36.4,25.8,29.12,NNW,329,0.0,3.4,65,-99.99,,,-99.99,WSDL version 423,2013-03-03 21:26:00,
2013-03-03 16:31:00,36.1,25.8,29.12,SW,225,0.0,3.4,67,-99.99,,,-99.99,WSDL version 423,2013-03-03 21:31:00,
2013-03-03 16:36:00,36.0,26.6,29.12,SW,215,0.0,0.0,69,-99.99,,,-99.99,WSDL version 423,2013-03-03 21:36:00,
2013-03-03 16:41:00,35.8,26.7,29.12,South,191,0.0,0.0,69,-99.99,,,-99.99,WSDL version 423,2013-03-03 21:41:00,
2013-03-03 16:51:00,34.3,25.0,29.12,ESE,110,0.0,2.7,68,-99.99,,,-99.99,WSDL version 423,2013-03-03 21:51:00,
2013-03-03 16:56:00,33.7,24.8,29.12,SSW,193,0.0,3.1,70,-99.99,,,-99.99,WSDL version 423,2013-03-03 21:56:00,
2013-03-03 17:01:00,33.5,25.3,29.12,South,180,0.0,3.1,72,-99.99,,,-99.99,WSDL version 423,2013-03-03 22:01:00,
2013-03-03 17:11:00,33.2,25.5,29.12,SSW,210,0.0,1.1,73,-99.99,,,-99.99,WSDL version 423,2013-03-03 22:11:00,
2013-03-03 17:16:00,32.8,24.9,29.12,NNW,340,0.0,1.3,71,-99.99,,,-99.99,WSDL version 423,2013-03-03 22:16:00,
2013-03-03 17:21:00,32.4,24.0,29.12,East,90,0.0,1.3,71,-99.99,,,-99.99,WSDL version 423,2013-03-03 22:21:00,
2013-03-03 17:26:00,32.0,24.3,29.12,SE,124,0.0,0.0,71,-99.99,,,-99.99,WSDL version 423,2013-03-03 22:26:00,
2013-03-03 17:36:00,31.1,24.1,29.12,North,355,0.0,2.5,72,-99.99,,,-99.99,WSDL version 423,2013-03-03 22:36:00,
2013-03-03 17:41:00,31.0,24.0,29.12,NE,35,0.3,2.5,73,-99.99,,,-99.99,WSDL version 423,2013-03-03 22:41:00,
2013-03-03 17:46:00,30.5,23.8,29.12,SSW,211,0.5,3.4,73,-99.99,,,-99.99,WSDL version 423,2013-03-03 22:46:00,
2013-03-03 17:51:00,30.2,23.9,29.12,NNW,332,0.1,3.4,75,-99.99,,,-99.99,WSDL version 423,2013-03-03 22:51:00,
2013-03-03 17:56:00,29.9,23.8,29.12,ESE,122,0.7,2.7,75,-99.99,,,-99.99,WSDL version 423,2013-03-03 22:56:00,
2013-03-03 18:01:00,29.6,23.6,29.12,North,357,2.6,3.8,76,-99.99,,,-99.99,WSDL version 423,2013-03-03 23:01:00,
2013-03-03 18:06:00,29.4,23.6,29.12,WNW,300,1.0,3.8,76,-99.99,,,-99.99,WSDL version 423,2013-03-03 23:06:00,
2013-03-03 18:11:00,29.2,23.3,29.12,North,358,3.2,4.9,76,-99.99,,,-99.99,WSDL version 423,2013-03-03 23:11:00,
2013-03-03 18:16:00,29.0,23.1,29.12,NW,326,1.1,4.9,76,-99.99,,,-99.99,WSDL version 423,2013-03-03 23:16:00,
2013-03-03 18:21:00,28.9,23.0,29.12,SSE,150,1.6,4.3,76,-99.99,,,-99.99,WSDL version 423,2013-03-03 23:21:00,
2013-03-03 18:26:00,28.7,22.9,29.15,North,349,1.7,8.1,77,-99.99,,,-99.99,WSDL version 423,2013-03-03 23:26:00,
2013-03-03 18:31:00,28.5,22.9,29.15,NW,315,0.6,8.1,77,-99.99,,,-99.99,WSDL version 423,2013-03-03 23:31:00,
2013-03-03 18:36:00,28.3,22.7,29.15,NNW,329,0.9,6.3,77,-99.99,,,-99.99,WSDL version 423,2013-03-03 23:36:00,
2013-03-03 18:41:00,28.1,22.5,29.12,SSW,198,2.6,4.7,77,-99.99,,,-99.99,WSDL version 423,2013-03-03 23:41:00,
2013-03-03 18:46:00,27.9,22.3,29.12,NNE,23,2.8,6.3,77,-99.99,,,-99.99,WSDL version 423,2013-03-03 23:46:00,
2013-03-03 18:51:00,27.8,22.2,29.12,North,349,1.4,6.3,77,-99.99,,,-99.99,WSDL version 423,2013-03-03 23:51:00,
2013-03-03 18:56:00,27.6,22.1,29.12,NNW,333,1.1,3.8,77,-99.99,,,-99.99,WSDL version 423,2013-03-03 23:56:00,
2013-03-03 19:01:00,27.4,21.9,29.12,NE,51,1.7,5.6,78,-99.99,,,-99.99,WSDL version 423,2013-03-04 00:01:00,
2013-03-03 19:06:00,27.3,22.0,29.12,SW,231,1.1,5.6,78,-99.99,,,-99.99,WSDL version 423,2013-03-04 00:06:00,
2013-03-03 19:11:00,27.2,21.9,29.15,NW,315,0.8,3.6,78,-99.99,,,-99.99,WSDL version 423,2013-03-04 00:11:00,
2013-03-03 19:16:00,27.0,21.6,29.15,North,360,2.3,4.3,78,-99.99,,,-99.99,WSDL version 423,2013-03-04 00:16:00,
2013-03-03 19:21:00,26.9,21.5,29.15,North,350,1.4,4.3,77,-99.99,,,-99.99,WSDL version 423,2013-03-04 00:21:00,
2013-03-03 19:26:00,26.6,21.3,29.15,West,264,1.7,5.8,78,-99.99,,,-99.99,WSDL version 423,2013-03-04 00:26:00,
2013-03-03 19:31:00,26.4,20.8,29.15,North,350,2.0,5.8,77,-99.99,,,-99.99,WSDL version 423,2013-03-04 00:31:00,
2013-03-03 19:36:00,26.2,20.8,29.15,North,352,2.1,4.9,78,-99.99,,,-99.99,WSDL version 423,2013-03-04 00:36:00,
2013-03-03 19:41:00,26.0,20.8,29.12,NNE,25,1.4,4.3,78,-99.99,,,-99.99,WSDL version 423,2013-03-04 00:41:00,
2013-03-03 19:46:00,25.8,20.6,29.12,North,354,0.0,3.6,78,-99.99,,,-99.99,WSDL version 423,2013-03-04 00:46:00,
2013-03-03 19:51:00,25.6,20.4,29.12,NW,313,0.8,3.1,78,-99.99,,,-99.99,WSDL version 423,2013-03-04 00:51:00,
2013-03-03 19:56:00,25.4,20.2,29.12,North,349,0.6,2.9,78,-99.99,,,-99.99,WSDL version 423,2013-03-04 00:56:00,
2013-03-03 20:01:00,25.3,20.0,29.12,WNW,298,0.0,2.2,78,-99.99,,,-99.99,WSDL version 423,2013-03-04 01:01:00,
2013-03-03 20:06:00,25.1,19.9,29.12,North,8,1.6,4.3,79,-99.99,,,-99.99,WSDL version 423,2013-03-04 01:06:00,
2013-03-03 20:11:00,25.0,20.0,29.15,ENE,76,0.8,4.3,79,-99.99,,,-99.99,WSDL version 423,2013-03-04 01:11:00,
2013-03-03 20:16:00,25.0,20.1,29.15,WNW,303,1.6,4.3,80,-99.99,,,-99.99,WSDL version 423,2013-03-04 01:16:00,
2013-03-03 20:21:00,24.9,20.2,29.15,NW,321,2.2,6.3,80,-99.99,,,-99.99,WSDL version 423,2013-03-04 01:21:00,
2013-03-03 20:26:00,24.8,20.1,29.15,WNW,298,2.8,6.3,80,-99.99,,,-99.99,WSDL version 423,2013-03-04 01:26:00,
2013-03-03 20:31:00,24.7,20.0,29.15,NW,320,0.5,4.7,80,-99.99,,,-99.99,WSDL version 423,2013-03-04 01:31:00,
2013-03-03 20:36:00,24.4,19.8,29.15,NNW,338,1.1,6.5,80,-99.99,,,-99.99,WSDL version 423,2013-03-04 01:36:00,
2013-03-03 20:41:00,24.4,19.7,29.15,NW,315,0.6,6.5,80,-99.99,,,-99.99,WSDL version 423,2013-03-04 01:41:00,
2013-03-03 20:46:00,24.2,19.5,29.15,NNW,340,0.8,4.3,80,-99.99,,,-99.99,WSDL version 423,2013-03-04 01:46:00,
2013-03-03 20:51:00,24.0,19.3,29.15,NNW,330,0.5,4.3,80,-99.99,,,-99.99,WSDL version 423,2013-03-04 01:51:00,
2013-03-03 20:56:00,23.7,18.9,29.15,SW,222,0.7,3.4,80,-99.99,,,-99.99,WSDL version 423,2013-03-04 01:56:00,
2013-03-03 21:01:00,23.5,18.7,29.15,NW,325,1.4,4.0,80,-99.99,,,-99.99,WSDL version 423,2013-03-04 02:01:00,
2013-03-03 21:06:00,23.4,18.7,29.15,North,350,0.6,4.0,80,-99.99,,,-99.99,WSDL version 423,2013-03-04 02:06:00,
2013-03-03 21:11:00,23.2,18.6,29.15,NW,304,0.8,2.9,80,-99.99,,,-99.99,WSDL version 423,2013-03-04 02:11:00,
2013-03-03 21:16:00,23.2,18.6,29.15,NNW,328,2.0,3.6,81,-99.99,,,-99.99,WSDL version 423,2013-03-04 02:16:00,
2013-03-03 21:21:00,23.2,18.8,29.15,SW,217,0.9,3.6,81,-99.99,,,-99.99,WSDL version 423,2013-03-04 02:21:00,
2013-03-03 21:26:00,23.0,18.6,29.12,SSW,198,0.0,3.6,81,-99.99,,,-99.99,WSDL version 423,2013-03-04 02:26:00,
2013-03-03 21:31:00,22.8,18.5,29.12,SW,225,0.0,2.9,81,-99.99,,,-99.99,WSDL version 423,2013-03-04 02:31:00,
2013-03-03 21:36:00,22.6,18.3,29.12,West,270,0.0,2.9,81,-99.99,,,-99.99,WSDL version 423,2013-03-04 02:36:00,
2013-03-03 21:41:00,22.6,18.3,29.12,SSW,200,0.0,2.9,81,-99.99,,,-99.99,WSDL version 423,2013-03-04 02:41:00,
2013-03-03 21:46:00,22.7,18.5,29.12,North,3,1.1,3.6,82,-99.99,,,-99.99,WSDL version 423,2013-03-04 02:46:00,
2013-03-03 21:51:00,22.9,19.0,29.12,SSW,193,0.4,3.6,83,-99.99,,,-99.99,WSDL version 423,2013-03-04 02:51:00,
2013-03-03 21:56:00,22.9,19.1,29.12,North,354,0.2,3.6,83,-99.99,,,-99.99,WSDL version 423,2013-03-04 02:56:00,
2013-03-03 22:01:00,23.0,19.2,29.12,WNW,293,0.4,4.0,83,-99.99,,,-99.99,WSDL version 423,2013-03-04 03:01:00,
2013-03-03 22:06:00,22.8,18.8,29.12,NE,42,0.0,4.0,82,-99.99,,,-99.99,WSDL version 423,2013-03-04 03:06:00,
2013-03-03 22:11:00,22.9,18.8,29.12,WNW,295,1.2,3.4,82,-99.99,,,-99.99,WSDL version 423,2013-03-04 03:11:00,
2013-03-03 22:21:00,23.0,18.9,29.12,WNW,290,0.0,1.1,82,-99.99,,,-99.99,WSDL version 423,2013-03-04 03:21:00,
2013-03-03 22:26:00,23.1,18.9,29.12,WSW,238,0.0,1.1,81,-99.99,,,-99.99,WSDL version 423,2013-03-04 03:26:00,
2013-03-03 22:31:00,23.3,19.0,29.12,West,276,0.8,3.1,82,-99.99,,,-99.99,WSDL version 423,2013-03-04 03:31:00,
2013-03-03 22:36:00,23.4,19.3,29.12,NNW,328,0.1,3.1,82,-99.99,,,-99.99,WSDL version 423,2013-03-04 03:36:00,
2013-03-03 22:41:00,23.5,19.4,29.12,SE,143,0.6,2.9,82,-99.99,,,-99.99,WSDL version 423,2013-03-04 03:41:00,
2013-03-03 22:46:00,23.5,19.2,29.12,North,350,1.9,3.4,81,-99.99,,,-99.99,WSDL version 423,2013-03-04 03:46:00,
2013-03-03 22:51:00,23.5,19.2,29.12,NNW,340,0.7,3.4,81,-99.99,,,-99.99,WSDL version 423,2013-03-04 03:51:00,
2013-03-03 22:56:00,23.5,19.1,29.12,ENE,58,0.9,2.7,80,-99.99,,,-99.99,WSDL version 423,2013-03-04 03:56:00,
2013-03-03 23:01:00,23.5,18.9,29.12,West,263,0.1,3.4,80,-99.99,,,-99.99,WSDL version 423,2013-03-04 04:01:00,
2013-03-03 23:06:00,23.7,19.1,29.12,SW,217,1.5,3.4,80,-99.99,,,-99.99,WSDL version 423,2013-03-04 04:06:00,
2013-03-03 23:11:00,23.7,19.1,29.12,NNE,33,0.5,3.4,80,-99.99,,,-99.99,WSDL version 423,2013-03-04 04:11:00,
2013-03-03 23:16:00,23.7,19.1,29.12,WSW,248,1.7,4.9,80,-99.99,,,-99.99,WSDL version 423,2013-03-04 04:16:00,
2013-03-03 23:21:00,23.7,19.1,29.12,West,280,2.0,4.9,80,-99.99,,,-99.99,WSDL version 423,2013-03-04 04:21:00,
2013-03-03 23:26:00,23.5,18.8,29.12,WSW,250,0.4,3.6,79,-99.99,,,-99.99,WSDL version 423,2013-03-04 04:26:00,
2013-03-03 23:31:00,23.5,18.6,29.12,NNW,328,0.2,3.1,79,-99.99,,,-99.99,WSDL version 423,2013-03-04 04:31:00,
2013-03-03 23:36:00,23.5,18.5,29.12,South,188,0.1,3.4,79,-99.99,,,-99.99,WSDL version 423,2013-03-04 04:36:00,
2013-03-03 23:46:00,23.2,18.3,29.12,ENE,65,0.0,3.1,79,-99.99,,,-99.99,WSDL version 423,2013-03-04 04:46:00,
2013-03-03 23:51:00,23.1,18.3,29.12,WSW,239,0.9,3.1,80,-99.99,,,-99.99,WSDL version 423,2013-03-04 04:51:00,
2013-03-03 23:56:00,23.1,18.3,29.12,North,10,0.8,3.6,79,-99.99,,,-99.99,WSDL version 423,2013-03-04 04:56:00,